Time;durP1;ratioP1;P1;durP2;ratioP2;P2;SDS_P1;SDS_P2;PMS_P1;PMS_P2;Temp;Humidity;BMP_temperature;BMP_pressure;BME280_temperature;BME280_humidity;BME280_pressure;Samples;Min_cycle;Max_cycle;Signal;HPM_P1;HPM_P2
2022/04/21 00:00:05;;;;;;;;;;;8.40;75.70;;;;;;5013350;28;19913;-88
2022/04/21 00:02:31;;;;;;;;;;;8.30;75.90;;;;;;5013300;28;19952;-89
2022/04/21 00:04:56;;;;;;;;;;;8.30;76.10;;;;;;5013260;28;19945;-89
2022/04/21 00:07:23;;;;;;;;;;;8.30;76.20;;;;;;5013184;28;19924;-88
2022/04/21 00:09:51;;;;;;;;;;;8.40;75.70;;;;;;5013161;28;19956;-89
2022/04/21 00:12:17;;;;;;;;;;;8.40;76.20;;;;;;5013101;28;20008;-89
2022/04/21 00:14:42;;;;;;;;;;;8.40;76.50;;;;;;5013183;28;20000;-89
2022/04/21 00:17:08;;;;;;;;;;;8.30;76.30;;;;;;5013147;28;19973;-89
2022/04/21 00:19:34;;;;;;;;;;;8.20;76.50;;;;;;5032792;28;19909;-89
2022/04/21 00:24:44;;;;;;;;;;;8.10;76.60;;;;;;5032834;28;20450;-88
2022/04/21 00:27:10;;;;;;;;;;;8.10;77.00;;;;;;5032774;28;19913;-89
2022/04/21 00:29:35;;;;;;;;;;;8.00;76.30;;;;;;5035572;28;19953;-89
2022/04/21 00:32:01;;;;;;;;;;;7.90;75.80;;;;;;5036494;28;19928;-88
2022/04/21 00:34:26;;;;;;;;;;;7.90;76.40;;;;;;5036627;28;20410;-88
2022/04/21 00:36:52;;;;;;;;;;;8.00;76.10;;;;;;5036589;28;20279;-89
2022/04/21 00:39:17;;;;;;;;;;;8.20;76.10;;;;;;5036563;28;20367;-88
2022/04/21 00:41:43;;;;;;;;;;;8.20;76.00;;;;;;5036492;28;19909;-88
2022/04/21 00:44:09;;;;;;;;;;;8.30;75.50;;;;;;5036480;28;20374;-88
2022/04/21 00:46:37;;;;;;;;;;;8.30;75.20;;;;;;5036379;28;20256;-89
2022/04/21 00:49:03;;;;;;;;;;;8.40;75.00;;;;;;5020497;28;19920;-89
2022/04/21 00:51:29;;;;;;;;;;;8.30;76.00;;;;;;5016473;28;19916;-89
2022/04/21 00:53:54;;;;;;;;;;;8.20;76.70;;;;;;5016467;28;19909;-88
2022/04/21 00:56:20;;;;;;;;;;;8.10;77.10;;;;;;5033383;28;19917;-89
2022/04/21 00:58:47;;;;;;;;;;;8.00;77.40;;;;;;5036171;28;19932;-89
2022/04/21 01:03:56;;;;;;;;;;;7.60;78.30;;;;;;5036389;28;19916;-89
2022/04/21 01:06:22;;;;;;;;;;;7.50;80.60;;;;;;5036056;28;19909;-89
2022/04/21 01:08:48;;;;;;;;;;;7.50;81.00;;;;;;5035655;28;19921;-89
2022/04/21 01:11:16;;;;;;;;;;;7.50;81.40;;;;;;5035931;28;19920;-89
2022/04/21 01:13:42;;;;;;;;;;;7.50;81.80;;;;;;5035790;28;19917;-89
2022/04/21 01:16:07;;;;;;;;;;;7.60;82.30;;;;;;5034674;28;19915;-89
2022/04/21 01:18:34;;;;;;;;;;;7.70;82.10;;;;;;5024369;28;19909;-89
2022/04/21 01:20:59;;;;;;;;;;;7.60;81.80;;;;;;5014773;28;19921;-88
2022/04/21 01:23:25;;;;;;;;;;;7.70;81.60;;;;;;5015958;28;19909;-89
2022/04/21 01:25:50;;;;;;;;;;;7.60;81.70;;;;;;5015928;28;20368;-88
2022/04/21 01:28:17;;;;;;;;;;;7.50;81.20;;;;;;5015895;28;19909;-88
2022/04/21 01:30:43;;;;;;;;;;;7.30;80.20;;;;;;5015812;28;20355;-89
2022/04/21 01:33:09;;;;;;;;;;;7.00;80.30;;;;;;5015651;28;20076;-89
2022/04/21 01:35:34;;;;;;;;;;;6.90;81.00;;;;;;5015792;28;19921;-89
2022/04/21 01:43:28;;;;;;;;;;;6.80;81.80;;;;;;5015911;28;19948;-89
2022/04/21 01:45:54;;;;;;;;;;;6.80;81.90;;;;;;5015519;28;19909;-89
2022/04/21 01:48:19;;;;;;;;;;;6.90;82.70;;;;;;5024289;28;19913;-89
2022/04/21 01:50:45;;;;;;;;;;;7.10;83.10;;;;;;5035107;28;19913;-89
2022/04/21 01:53:11;;;;;;;;;;;7.10;83.20;;;;;;5035109;28;19941;-88
2022/04/21 01:55:37;;;;;;;;;;;6.90;82.80;;;;;;5032532;28;19917;-89
2022/04/21 01:58:02;;;;;;;;;;;6.90;83.30;;;;;;5015266;28;19914;-89
2022/04/21 02:00:28;;;;;;;;;;;6.90;84.30;;;;;;5015263;28;19916;-89
2022/04/21 02:02:54;;;;;;;;;;;6.90;84.20;;;;;;5013879;28;20008;-89
2022/04/21 02:05:19;;;;;;;;;;;7.00;83.90;;;;;;5015143;28;19914;-89
2022/04/21 02:07:46;;;;;;;;;;;7.10;83.40;;;;;;5014919;28;20008;-89
2022/04/21 02:10:12;;;;;;;;;;;7.10;83.40;;;;;;5014971;28;19909;-89
2022/04/21 02:12:38;;;;;;;;;;;7.30;83.60;;;;;;5016005;28;19913;-89
2022/04/21 02:15:03;;;;;;;;;;;7.30;83.30;;;;;;5014984;28;19939;-89
2022/04/21 02:17:31;;;;;;;;;;;7.30;83.10;;;;;;5014870;28;19910;-89
2022/04/21 02:19:56;;;;;;;;;;;7.20;83.00;;;;;;5015198;28;19917;-89
2022/04/21 02:22:22;;;;;;;;;;;7.20;83.10;;;;;;5014889;28;20279;-89
2022/04/21 02:24:48;;;;;;;;;;;7.20;83.30;;;;;;5014807;28;20275;-89
2022/04/21 02:27:13;;;;;;;;;;;7.30;83.10;;;;;;5014732;28;19909;-88
2022/04/21 02:29:39;;;;;;;;;;;7.30;83.00;;;;;;5014687;28;19910;-88
2022/04/21 02:32:05;;;;;;;;;;;7.40;82.70;;;;;;5014454;28;19920;-89
2022/04/21 02:34:30;;;;;;;;;;;7.40;82.60;;;;;;5014882;28;19940;-88
2022/04/21 02:36:56;;;;;;;;;;;7.40;82.10;;;;;;5014574;28;19916;-89
2022/04/21 02:39:22;;;;;;;;;;;7.30;81.80;;;;;;5014547;28;19953;-89
2022/04/21 02:41:47;;;;;;;;;;;7.10;81.80;;;;;;5014480;28;19910;-88
2022/04/21 02:44:13;;;;;;;;;;;7.00;82.30;;;;;;5028483;28;20015;-89
2022/04/21 02:46:38;;;;;;;;;;;7.00;82.50;;;;;;5033865;28;19919;-88
2022/04/21 02:49:04;;;;;;;;;;;6.80;83.10;;;;;;5034058;28;20004;-88
2022/04/21 02:51:32;;;;;;;;;;;6.60;83.60;;;;;;5033488;28;19909;-88
2022/04/21 02:57:43;;;;;;;;;;;6.80;83.80;;;;;;5034015;28;19963;-89
2022/04/21 02:59:37;;;;;;;;;;;6.80;83.70;;;;;;5020704;28;19909;-88
2022/04/21 03:02:02;;;;;;;;;;;6.90;83.10;;;;;;5033823;28;19916;-89
2022/04/21 03:04:28;;;;;;;;;;;6.90;82.80;;;;;;5033843;28;19955;-89
2022/04/21 03:06:53;;;;;;;;;;;6.80;82.90;;;;;;5033758;28;20355;-89
2022/04/21 03:09:19;;;;;;;;;;;6.80;82.90;;;;;;5033571;28;19921;-89
2022/04/21 03:11:44;;;;;;;;;;;6.90;82.70;;;;;;5033626;28;19916;-89
2022/04/21 03:14:10;;;;;;;;;;;6.90;82.60;;;;;;5019696;28;19924;-89
2022/04/21 03:16:35;;;;;;;;;;;6.90;82.70;;;;;;5013894;28;19917;-89
2022/04/21 03:19:01;;;;;;;;;;;7.00;82.50;;;;;;5013855;28;20333;-89
2022/04/21 03:24:20;;;;;;;;;;;7.00;81.80;;;;;;5013804;28;20267;-89
2022/04/21 03:26:52;;;;;;;;;;;7.00;81.40;;;;;;5013749;28;20386;-88
2022/04/21 03:29:18;;;;;;;;;;;6.90;80.70;;;;;;5013694;28;20433;-88
2022/04/21 03:31:44;;;;;;;;;;;6.70;81.20;;;;;;5013499;28;19909;-89
2022/04/21 03:34:13;;;;;;;;;;;6.70;81.80;;;;;;5013673;28;19916;-89
2022/04/21 03:36:51;;;;;;;;;;;6.80;82.00;;;;;;5013601;28;19917;-88
2022/04/21 03:39:18;;;;;;;;;;;6.90;82.10;;;;;;5012321;28;19909;-89
2022/04/21 03:41:43;;;;;;;;;;;7.00;81.90;;;;;;5013516;28;19910;-89
2022/04/21 03:44:10;;;;;;;;;;;7.10;81.60;;;;;;5014246;28;19920;-89
2022/04/21 03:46:36;;;;;;;;;;;7.10;81.70;;;;;;5013452;28;19910;-89
2022/04/21 03:49:02;;;;;;;;;;;7.20;81.90;;;;;;5013711;28;19956;-88
2022/04/21 03:51:27;;;;;;;;;;;7.20;82.00;;;;;;5013464;28;19910;-89
2022/04/21 03:53:54;;;;;;;;;;;7.20;82.10;;;;;;5013319;28;19937;-89
2022/04/21 03:56:20;;;;;;;;;;;7.20;81.90;;;;;;5013394;28;19909;-89
2022/04/21 03:58:46;;;;;;;;;;;7.20;81.80;;;;;;5013317;28;19910;-90
2022/04/21 04:01:11;;;;;;;;;;;7.30;81.80;;;;;;5013317;28;19933;-88
2022/04/21 04:03:37;;;;;;;;;;;7.30;81.20;;;;;;5014580;28;19917;-89
2022/04/21 04:06:02;;;;;;;;;;;7.40;80.90;;;;;;5028598;28;19913;-89
2022/04/21 04:11:12;;;;;;;;;;;7.40;80.90;;;;;;5037101;28;20294;-89
2022/04/21 04:13:37;;;;;;;;;;;7.40;80.90;;;;;;5036966;28;20386;-89
2022/04/21 04:16:03;;;;;;;;;;;7.40;80.80;;;;;;5036932;28;20382;-89
2022/04/21 04:18:29;;;;;;;;;;;7.40;80.40;;;;;;5036961;28;20338;-89
2022/04/21 04:20:55;;;;;;;;;;;7.50;79.90;;;;;;5037179;28;19909;-89
2022/04/21 04:23:21;;;;;;;;;;;7.50;79.90;;;;;;5036816;28;19953;-88
2022/04/21 04:25:46;;;;;;;;;;;7.40;80.30;;;;;;5036843;28;19956;-88
2022/04/21 04:28:12;;;;;;;;;;;7.10;80.90;;;;;;5036742;28;19909;-89
2022/04/21 04:30:42;;;;;;;;;;;7.00;81.80;;;;;;5036714;28;20295;-88
2022/04/21 04:33:08;;;;;;;;;;;6.80;82.40;;;;;;5036428;28;20254;-88
2022/04/21 04:35:33;;;;;;;;;;;6.80;82.50;;;;;;5028991;28;20160;-88
2022/04/21 04:37:59;;;;;;;;;;;6.80;82.50;;;;;;5017378;28;19916;-89
2022/04/21 04:40:25;;;;;;;;;;;6.90;82.30;;;;;;5016787;28;19909;-89
2022/04/21 04:42:54;;;;;;;;;;;7.00;82.20;;;;;;5016764;28;19920;-89
2022/04/21 04:48:04;;;;;;;;;;;6.90;82.60;;;;;;5017258;28;20407;-89
2022/04/21 04:50:29;;;;;;;;;;;7.00;82.70;;;;;;5016563;28;19949;-88
2022/04/21 04:52:58;;;;;;;;;;;7.10;82.60;;;;;;5016394;28;19928;-89
2022/04/21 04:55:24;;;;;;;;;;;7.20;82.60;;;;;;5016393;28;19956;-89
2022/04/21 04:57:50;;;;;;;;;;;7.20;82.20;;;;;;5016357;28;19909;-89
2022/04/21 05:00:16;;;;;;;;;;;7.30;81.90;;;;;;5023432;28;19975;-88
2022/04/21 05:02:41;;;;;;;;;;;7.30;81.90;;;;;;5020187;28;19909;-89
2022/04/21 05:05:07;;;;;;;;;;;7.40;81.90;;;;;;5019953;28;20386;-89
2022/04/21 05:07:33;;;;;;;;;;;7.40;82.20;;;;;;5035879;28;19995;-89
2022/04/21 05:09:58;;;;;;;;;;;7.50;82.10;;;;;;5034029;28;19909;-89
2022/04/21 05:12:24;;;;;;;;;;;7.60;82.30;;;;;;5034912;28;19939;-89
2022/04/21 05:14:51;;;;;;;;;;;7.50;82.10;;;;;;5035521;28;19910;-88
2022/04/21 05:17:17;;;;;;;;;;;7.40;82.10;;;;;;5034163;28;19920;-89
2022/04/21 05:19:42;;;;;;;;;;;7.30;82.50;;;;;;5034091;28;19913;-89
2022/04/21 05:22:09;;;;;;;;;;;7.50;82.60;;;;;;5034148;28;20091;-89
2022/04/21 05:24:36;;;;;;;;;;;7.60;82.20;;;;;;5028693;28;19935;-88
2022/04/21 05:27:01;;;;;;;;;;;7.70;81.60;;;;;;5037581;28;19913;-89
2022/04/21 05:32:14;;;;;;;;;;;7.90;81.00;;;;;;5026196;28;19940;-89
2022/04/21 05:34:40;;;;;;;;;;;7.90;80.90;;;;;;5029318;28;20008;-89
2022/04/21 05:37:06;;;;;;;;;;;8.10;81.20;;;;;;5024903;28;19920;-89
2022/04/21 05:39:32;;;;;;;;;;;8.10;81.50;;;;;;5027990;28;19914;-89
2022/04/21 05:41:58;;;;;;;;;;;7.90;82.80;;;;;;5025197;28;20358;-89
2022/04/21 05:44:25;;;;;;;;;;;7.90;83.20;;;;;;5039814;28;20013;-89
2022/04/21 05:46:50;;;;;;;;;;;7.90;83.20;;;;;;5032115;28;20135;-89
2022/04/21 05:49:16;;;;;;;;;;;7.90;82.60;;;;;;5032977;28;19948;-89
2022/04/21 05:51:42;;;;;;;;;;;7.90;82.30;;;;;;5028305;28;20028;-87
2022/04/21 05:54:08;;;;;;;;;;;8.00;82.50;;;;;;5025524;28;20353;-88
2022/04/21 05:56:34;;;;;;;;;;;8.10;82.80;;;;;;5027734;28;20323;-88
2022/04/21 05:58:59;;;;;;;;;;;8.10;83.90;;;;;;5018671;28;19910;-88
2022/04/21 06:01:25;;;;;;;;;;;8.10;84.40;;;;;;5019349;28;19912;-88
2022/04/21 06:03:52;;;;;;;;;;;8.30;84.10;;;;;;5034862;28;20330;-88
2022/04/21 06:07:21;;;;;;;;;;;8.50;83.60;;;;;;5144381;27;19973;-88
2022/04/21 06:09:47;;;;;;;;;;;8.80;80.50;;;;;;5105237;28;19920;-88
2022/04/21 06:12:13;;;;;;;;;;;8.90;80.50;;;;;;5086818;28;19961;-88
2022/04/21 06:14:39;;;;;;;;;;;9.10;80.70;;;;;;5090491;28;20413;-88
2022/04/21 06:17:05;;;;;;;;;;;9.30;80.60;;;;;;5093539;28;19952;-88
2022/04/21 06:19:31;;;;;;;;;;;9.40;80.40;;;;;;5090103;28;19939;-88
2022/04/21 06:21:56;;;;;;;;;;;9.50;79.90;;;;;;5084607;28;19955;-89
2022/04/21 06:24:22;;;;;;;;;;;9.70;79.20;;;;;;5079432;28;19919;-88
2022/04/21 06:26:47;;;;;;;;;;;9.90;78.30;;;;;;5088354;28;19929;-89
2022/04/21 06:29:13;;;;;;;;;;;9.90;77.10;;;;;;5090436;28;19917;-89
2022/04/21 06:31:38;;;;;;;;;;;10.10;76.50;;;;;;5093635;28;19908;-89
2022/04/21 06:34:04;;;;;;;;;;;10.20;76.20;;;;;;5095405;28;19958;-89
2022/04/21 06:36:29;;;;;;;;;;;10.40;75.80;;;;;;5083768;28;19919;-89
2022/04/21 06:38:55;;;;;;;;;;;10.50;75.20;;;;;;5082957;28;19919;-90
2022/04/21 06:41:20;;;;;;;;;;;10.60;74.90;;;;;;5086525;28;19913;-89
2022/04/21 06:49:31;;;;;;;;;;;10.90;74.10;;;;;;5097566;28;19912;-89
2022/04/21 06:51:57;;;;;;;;;;;11.10;73.50;;;;;;5087792;28;19913;-89
2022/04/21 06:54:22;;;;;;;;;;;11.20;73.30;;;;;;5085836;28;19985;-89
2022/04/21 06:56:48;;;;;;;;;;;11.30;73.00;;;;;;5088442;28;20324;-89
2022/04/21 06:59:17;;;;;;;;;;;11.40;72.80;;;;;;5079121;28;19912;-89
2022/04/21 07:01:46;;;;;;;;;;;11.60;72.60;;;;;;5086707;28;20378;-89
2022/04/21 07:04:12;;;;;;;;;;;11.70;71.90;;;;;;5092654;28;19919;-89
2022/04/21 07:06:38;;;;;;;;;;;11.80;71.50;;;;;;5089388;28;19916;-89
2022/04/21 07:09:04;;;;;;;;;;;11.90;71.20;;;;;;5097461;28;19913;-89
2022/04/21 07:11:30;;;;;;;;;;;12.00;71.20;;;;;;5093409;28;19913;-89
2022/04/21 07:13:56;;;;;;;;;;;12.00;71.40;;;;;;5098180;28;19912;-89
2022/04/21 07:16:22;;;;;;;;;;;12.10;71.10;;;;;;5092022;28;20290;-89
2022/04/21 07:18:47;;;;;;;;;;;12.20;71.30;;;;;;5067298;28;20047;-89
2022/04/21 07:21:13;;;;;;;;;;;12.30;71.70;;;;;;5064881;28;20401;-89
2022/04/21 07:23:39;;;;;;;;;;;12.30;71.60;;;;;;5076124;28;19912;-89
2022/04/21 07:26:05;;;;;;;;;;;12.40;71.30;;;;;;5076837;28;19935;-89
2022/04/21 07:28:30;;;;;;;;;;;12.40;71.20;;;;;;5065342;28;19921;-89
2022/04/21 07:30:56;;;;;;;;;;;12.50;70.80;;;;;;5064225;28;19920;-89
2022/04/21 07:33:22;;;;;;;;;;;12.70;71.10;;;;;;5062968;28;20275;-90
2022/04/21 07:35:47;;;;;;;;;;;12.70;70.70;;;;;;5069309;28;19913;-89
2022/04/21 07:38:13;;;;;;;;;;;12.90;70.90;;;;;;5069763;28;20017;-89
2022/04/21 07:40:38;;;;;;;;;;;12.90;70.10;;;;;;5072361;28;19999;-89
2022/04/21 07:43:08;;;;;;;;;;;12.90;70.80;;;;;;5071562;28;19912;-89
2022/04/21 07:45:41;;;;;;;;;;;12.90;70.70;;;;;;5064703;28;19920;-89
2022/04/21 07:48:06;;;;;;;;;;;13.00;70.00;;;;;;5085270;28;19916;-89
2022/04/21 07:50:32;;;;;;;;;;;13.10;69.40;;;;;;5093545;28;19947;-89
2022/04/21 07:53:18;;;;;;;;;;;13.10;69.10;;;;;;5088916;28;20016;-89
2022/04/21 07:55:48;;;;;;;;;;;13.20;69.40;;;;;;5077955;28;19917;-89
2022/04/21 07:58:14;;;;;;;;;;;13.30;67.80;;;;;;5067992;28;19923;-89
2022/04/21 08:00:40;;;;;;;;;;;13.40;67.80;;;;;;5081440;28;19912;-89
2022/04/21 08:03:06;;;;;;;;;;;13.50;67.70;;;;;;5071419;28;19956;-89
2022/04/21 08:05:31;;;;;;;;;;;13.60;67.70;;;;;;5061393;28;20325;-88
2022/04/21 08:07:58;;;;;;;;;;;13.70;67.10;;;;;;5065433;28;20385;-90
2022/04/21 08:10:24;;;;;;;;;;;13.90;67.30;;;;;;5066145;28;19923;-89
2022/04/21 08:12:51;;;;;;;;;;;13.90;66.70;;;;;;5076728;28;19958;-90
2022/04/21 08:15:26;;;;;;;;;;;14.00;66.40;;;;;;5074968;28;20011;-89
2022/04/21 08:17:54;;;;;;;;;;;14.20;66.30;;;;;;5074514;28;19912;-89
2022/04/21 08:20:20;;;;;;;;;;;14.30;66.10;;;;;;5075946;28;20177;-89
2022/04/21 08:22:45;;;;;;;;;;;14.40;66.40;;;;;;5062951;28;20071;-89
2022/04/21 08:33:23;;;;;;;;;;;14.70;62.00;;;;;;5078126;28;19923;-89
2022/04/21 08:35:50;;;;;;;;;;;14.70;62.50;;;;;;5071464;28;19912;-89
2022/04/21 08:38:15;;;;;;;;;;;14.90;61.40;;;;;;5078098;28;19912;-89
2022/04/21 08:40:45;;;;;;;;;;;15.00;61.60;;;;;;5068627;28;19920;-90
2022/04/21 08:43:15;;;;;;;;;;;15.10;61.10;;;;;;5064576;28;19921;-89
2022/04/21 08:45:43;;;;;;;;;;;15.10;62.90;;;;;;5074152;28;19916;-89
2022/04/21 08:48:10;;;;;;;;;;;15.10;62.00;;;;;;5067554;28;19944;-90
2022/04/21 08:50:36;;;;;;;;;;;15.20;60.40;;;;;;5075558;28;20119;-89
2022/04/21 08:53:03;;;;;;;;;;;15.30;60.10;;;;;;5068127;28;19912;-89
2022/04/21 08:55:28;;;;;;;;;;;15.30;58.90;;;;;;5071671;28;19909;-89
2022/04/21 08:57:56;;;;;;;;;;;15.30;57.80;;;;;;5073444;28;19935;-89
2022/04/21 09:00:22;;;;;;;;;;;15.30;59.10;;;;;;5059501;28;19913;-90
2022/04/21 09:02:48;;;;;;;;;;;15.40;58.10;;;;;;5073410;28;19919;-89
2022/04/21 09:05:13;;;;;;;;;;;15.40;57.00;;;;;;5088166;28;19961;-89
2022/04/21 09:07:49;;;;;;;;;;;15.40;58.20;;;;;;5077414;28;19912;-89
2022/04/21 09:10:15;;;;;;;;;;;15.30;58.30;;;;;;5071510;28;19962;-89
2022/04/21 09:12:45;;;;;;;;;;;15.30;59.00;;;;;;5069419;28;19919;-90
2022/04/21 09:15:14;;;;;;;;;;;15.30;57.40;;;;;;5067403;28;20014;-90
2022/04/21 09:17:41;;;;;;;;;;;15.30;56.60;;;;;;5072399;28;19920;-89
2022/04/21 09:20:07;;;;;;;;;;;15.30;57.30;;;;;;5064286;28;19916;-90
2022/04/21 09:22:33;;;;;;;;;;;15.20;57.80;;;;;;5069880;28;19962;-89
2022/04/21 09:24:59;;;;;;;;;;;15.20;56.60;;;;;;5062040;28;20337;-89
2022/04/21 09:27:37;;;;;;;;;;;15.20;56.00;;;;;;5069451;28;19943;-89
2022/04/21 09:30:02;;;;;;;;;;;15.00;58.60;;;;;;5067209;28;19919;-89
2022/04/21 09:32:28;;;;;;;;;;;14.90;58.40;;;;;;5063157;28;19913;-88
2022/04/21 09:34:54;;;;;;;;;;;14.90;58.60;;;;;;5066807;28;20282;-89
2022/04/21 09:37:20;;;;;;;;;;;14.90;58.50;;;;;;5073067;28;19924;-89
2022/04/21 09:39:52;;;;;;;;;;;14.80;58.80;;;;;;5075651;28;19916;-89
2022/04/21 09:42:24;;;;;;;;;;;14.70;59.40;;;;;;5069272;28;19913;-90
2022/04/21 09:47:34;;;;;;;;;;;14.50;58.10;;;;;;5065239;28;19927;-90
2022/04/21 09:50:12;;;;;;;;;;;14.40;57.40;;;;;;5070635;28;19913;-89
2022/04/21 09:52:38;;;;;;;;;;;14.40;57.20;;;;;;5065293;28;19913;-91
2022/04/21 09:55:20;;;;;;;;;;;14.40;56.70;;;;;;5068732;28;19939;-91
2022/04/21 09:57:45;;;;;;;;;;;14.40;57.20;;;;;;5075662;28;19913;-90
2022/04/21 10:00:11;;;;;;;;;;;14.40;56.60;;;;;;5066071;28;19920;-90
2022/04/21 10:02:38;;;;;;;;;;;14.40;56.60;;;;;;5060809;28;19913;-90
2022/04/21 10:05:04;;;;;;;;;;;14.40;56.70;;;;;;5072076;28;20279;-90
2022/04/21 10:07:30;;;;;;;;;;;14.30;55.60;;;;;;5067536;28;19920;-90
2022/04/21 10:09:56;;;;;;;;;;;14.40;55.90;;;;;;5066224;28;19913;-90
2022/04/21 10:12:22;;;;;;;;;;;14.40;56.30;;;;;;5068731;28;19913;-90
2022/04/21 10:14:48;;;;;;;;;;;14.40;54.90;;;;;;5072913;28;20401;-89
2022/04/21 10:17:13;;;;;;;;;;;14.40;55.70;;;;;;5069334;28;19923;-91
2022/04/21 10:19:39;;;;;;;;;;;14.40;56.50;;;;;;5069020;28;19912;-90
2022/04/21 10:22:11;;;;;;;;;;;14.50;56.20;;;;;;5060690;28;20247;-89
2022/04/21 10:24:37;;;;;;;;;;;14.50;54.50;;;;;;5072752;28;19921;-90
2022/04/21 10:27:03;;;;;;;;;;;14.50;53.10;;;;;;5072639;28;19916;-90
2022/04/21 10:29:29;;;;;;;;;;;14.60;54.60;;;;;;5093259;28;19914;-90
2022/04/21 10:31:56;;;;;;;;;;;14.60;54.50;;;;;;5093218;28;19917;-90
2022/04/21 10:34:28;;;;;;;;;;;14.70;55.10;;;;;;5084081;28;19952;-90
2022/04/21 10:37:05;;;;;;;;;;;14.80;54.80;;;;;;5071461;28;19913;-90
2022/04/21 10:39:30;;;;;;;;;;;14.90;54.60;;;;;;5072756;28;19909;-90
2022/04/21 10:42:06;;;;;;;;;;;14.90;54.70;;;;;;5073002;28;19962;-90
2022/04/21 10:44:39;;;;;;;;;;;14.90;55.40;;;;;;5072559;28;19919;-90
2022/04/21 10:47:23;;;;;;;;;;;14.80;53.00;;;;;;5072614;28;19955;-90
2022/04/21 10:49:59;;;;;;;;;;;14.80;53.00;;;;;;5072661;28;19909;-90
2022/04/21 10:57:48;;;;;;;;;;;14.80;50.80;;;;;;5076660;28;20061;-91
2022/04/21 11:00:33;;;;;;;;;;;14.80;51.10;;;;;;5074963;28;20286;-90
2022/04/21 11:03:08;;;;;;;;;;;14.80;50.90;;;;;;5075824;28;20270;-90
2022/04/21 11:05:38;;;;;;;;;;;14.80;50.50;;;;;;5075558;28;20285;-90
2022/04/21 11:08:04;;;;;;;;;;;14.80;50.10;;;;;;5076136;28;20383;-90
2022/04/21 11:10:36;;;;;;;;;;;14.90;49.90;;;;;;5076058;28;19915;-90
2022/04/21 11:13:02;;;;;;;;;;;14.90;50.00;;;;;;5076039;28;20011;-90
2022/04/21 11:15:36;;;;;;;;;;;14.90;50.60;;;;;;5076006;28;19908;-90
2022/04/21 11:18:05;;;;;;;;;;;15.00;50.90;;;;;;5075871;28;19991;-90
2022/04/21 11:20:31;;;;;;;;;;;14.90;50.80;;;;;;5076741;28;20252;-90
2022/04/21 11:22:56;;;;;;;;;;;14.90;51.60;;;;;;5095970;28;20376;-90
2022/04/21 11:25:22;;;;;;;;;;;14.90;50.90;;;;;;5095949;28;19908;-90
2022/04/21 11:27:48;;;;;;;;;;;14.90;52.10;;;;;;5096050;28;19908;-90
2022/04/21 11:30:15;;;;;;;;;;;15.00;52.40;;;;;;5096243;28;19978;-90
2022/04/21 11:32:51;;;;;;;;;;;15.10;53.20;;;;;;5096065;28;19908;-89
2022/04/21 11:35:17;;;;;;;;;;;15.10;53.30;;;;;;5079737;28;19919;-90
2022/04/21 11:37:43;;;;;;;;;;;15.10;51.80;;;;;;5077372;28;19916;-90
2022/04/21 11:40:23;;;;;;;;;;;15.10;52.20;;;;;;5071470;28;20382;-90
2022/04/21 11:42:51;;;;;;;;;;;15.20;52.90;;;;;;5057296;28;20008;-90
2022/04/21 11:45:18;;;;;;;;;;;15.30;52.90;;;;;;5059771;28;20117;-90
2022/04/21 11:47:44;;;;;;;;;;;15.30;52.80;;;;;;5064898;28;19967;-90
2022/04/21 11:50:10;;;;;;;;;;;15.30;53.10;;;;;;5063535;28;19960;-90
2022/04/21 11:52:36;;;;;;;;;;;15.40;53.70;;;;;;5063040;28;19912;-89
2022/04/21 11:55:02;;;;;;;;;;;15.60;52.70;;;;;;5080910;28;19935;-90
2022/04/21 11:57:40;;;;;;;;;;;15.80;51.00;;;;;;5061320;28;19936;-90
2022/04/21 12:00:06;;;;;;;;;;;16.00;50.20;;;;;;5058377;28;19920;-90
2022/04/21 12:08:00;;;;;;;;;;;16.70;51.10;;;;;;5065567;28;19974;-90
2022/04/21 12:10:26;;;;;;;;;;;16.70;50.90;;;;;;5066675;28;19920;-91
2022/04/21 12:12:52;;;;;;;;;;;16.80;49.30;;;;;;5068763;28;19918;-90
2022/04/21 12:15:26;;;;;;;;;;;16.80;50.60;;;;;;5074597;28;19913;-90
2022/04/21 12:17:51;;;;;;;;;;;17.00;50.30;;;;;;5056469;28;19913;-90
2022/04/21 12:20:17;;;;;;;;;;;17.00;47.60;;;;;;5065824;28;19913;-90
2022/04/21 12:22:43;;;;;;;;;;;17.00;47.00;;;;;;5073150;28;19999;-90
2022/04/21 12:25:12;;;;;;;;;;;16.90;48.70;;;;;;5075168;28;19913;-90
2022/04/21 12:27:38;;;;;;;;;;;16.80;48.60;;;;;;5090525;28;19908;-90
2022/04/21 12:30:05;;;;;;;;;;;16.80;49.50;;;;;;5079944;28;19919;-90
2022/04/21 12:32:34;;;;;;;;;;;16.80;48.80;;;;;;5080949;28;19912;-90
2022/04/21 12:37:08;;;;;;;;;;;16.90;48.90;;;;;;5105053;27;19998;-90
2022/04/21 12:39:33;;;;;;;;;;;16.90;47.60;;;;;;5033809;28;19942;-90
2022/04/21 12:42:01;;;;;;;;;;;16.70;47.70;;;;;;5101595;28;19966;-90
2022/04/21 12:44:27;;;;;;;;;;;16.80;49.30;;;;;;5020634;28;19950;-90
2022/04/21 12:47:00;;;;;;;;;;;16.80;48.20;;;;;;5052320;28;19945;-90
2022/04/21 12:49:44;;;;;;;;;;;16.70;49.30;;;;;;5032261;28;19949;-89
2022/04/21 12:52:10;;;;;;;;;;;16.80;47.70;;;;;;5063618;28;19967;-89
2022/04/21 12:54:35;;;;;;;;;;;16.80;47.70;;;;;;5024853;28;20314;-89
2022/04/21 12:57:01;;;;;;;;;;;16.90;46.80;;;;;;5010533;28;20021;-89
2022/04/21 12:59:27;;;;;;;;;;;17.00;46.60;;;;;;5011190;28;19942;-89
2022/04/21 13:01:52;;;;;;;;;;;17.10;46.60;;;;;;5047411;28;20390;-89
2022/04/21 13:04:18;;;;;;;;;;;17.30;46.10;;;;;;5012885;28;20426;-90
2022/04/21 13:06:44;;;;;;;;;;;17.60;45.90;;;;;;5061599;28;19937;-90
2022/04/21 13:09:10;;;;;;;;;;;17.90;45.70;;;;;;5085811;28;20011;-89
2022/04/21 13:11:35;;;;;;;;;;;18.40;45.70;;;;;;5004860;28;19955;-89
2022/04/21 13:14:01;;;;;;;;;;;18.40;44.80;;;;;;5005957;28;19952;-89
2022/04/21 13:16:26;;;;;;;;;;;18.30;45.10;;;;;;5003634;28;19964;-89
2022/04/21 13:18:53;;;;;;;;;;;18.10;45.20;;;;;;5015762;28;19942;-89
2022/04/21 13:21:52;;;;;;;;;;;18.00;47.30;;;;;;5002354;28;20004;-89
2022/04/21 13:24:10;;;;;;;;;;;17.90;48.00;;;;;;5006435;28;19951;-89
2022/04/21 13:26:36;;;;;;;;;;;17.90;46.30;;;;;;5014917;28;20354;-90
2022/04/21 13:29:02;;;;;;;;;;;18.10;43.70;;;;;;5019670;28;19978;-89
2022/04/21 13:34:11;;;;;;;;;;;18.30;43.10;;;;;;4994987;28;20194;-90
2022/04/21 13:36:40;;;;;;;;;;;18.30;42.90;;;;;;5004509;28;20197;-90
2022/04/21 13:39:06;;;;;;;;;;;18.40;42.10;;;;;;5004803;28;20041;-89
2022/04/21 13:41:31;;;;;;;;;;;18.30;42.40;;;;;;4997547;28;19998;-89
2022/04/21 13:43:57;;;;;;;;;;;18.20;43.00;;;;;;5004914;28;19952;-89
2022/04/21 13:46:22;;;;;;;;;;;18.00;43.00;;;;;;5004663;28;19955;-89
2022/04/21 13:48:48;;;;;;;;;;;17.90;44.20;;;;;;4997958;28;19995;-89
2022/04/21 13:51:14;;;;;;;;;;;17.70;44.90;;;;;;4985832;28;20048;-89
2022/04/21 13:53:40;;;;;;;;;;;17.70;44.30;;;;;;4985650;28;19943;-89
2022/04/21 13:56:06;;;;;;;;;;;17.60;45.20;;;;;;4979329;28;20076;-90
2022/04/21 13:58:32;;;;;;;;;;;17.60;44.80;;;;;;4979706;28;19958;-90
2022/04/21 14:00:58;;;;;;;;;;;17.40;46.10;;;;;;4981246;28;20337;-89
2022/04/21 14:03:24;;;;;;;;;;;17.20;46.60;;;;;;4979665;28;19945;-90
2022/04/21 14:05:49;;;;;;;;;;;17.10;45.10;;;;;;4996090;28;19948;-89
2022/04/21 14:08:15;;;;;;;;;;;17.00;44.00;;;;;;5002573;28;19954;-90
2022/04/21 14:10:42;;;;;;;;;;;16.90;43.30;;;;;;5024566;28;19964;-89
2022/04/21 14:13:07;;;;;;;;;;;16.90;43.60;;;;;;4984641;28;19955;-89
2022/04/21 14:15:34;;;;;;;;;;;17.00;44.60;;;;;;5001711;28;19964;-90
2022/04/21 14:18:00;;;;;;;;;;;16.90;44.10;;;;;;5010447;28;19945;-90
2022/04/21 14:20:26;;;;;;;;;;;17.00;43.30;;;;;;5010419;28;19949;-90
2022/04/21 14:22:51;;;;;;;;;;;17.00;43.80;;;;;;5010264;28;19949;-89
2022/04/21 14:25:18;;;;;;;;;;;17.00;44.00;;;;;;4990711;28;19986;-90
2022/04/21 14:27:43;;;;;;;;;;;17.00;44.10;;;;;;4976804;28;19948;-90
2022/04/21 14:30:09;;;;;;;;;;;17.00;43.60;;;;;;5000314;28;19976;-90
2022/04/21 14:32:35;;;;;;;;;;;17.00;43.00;;;;;;4997835;28;20003;-90
2022/04/21 14:35:01;;;;;;;;;;;16.90;43.80;;;;;;5018990;28;20037;-89
2022/04/21 14:45:39;;;;;;;;;;;16.90;45.20;;;;;;4999919;28;20349;-89
2022/04/21 14:48:05;;;;;;;;;;;16.90;45.30;;;;;;4997168;28;20381;-90
2022/04/21 14:50:31;;;;;;;;;;;16.90;45.80;;;;;;4995965;28;20280;-90
2022/04/21 14:52:57;;;;;;;;;;;16.80;45.70;;;;;;5002393;28;19952;-90
2022/04/21 14:55:24;;;;;;;;;;;16.70;45.70;;;;;;4992174;28;19964;-90
2022/04/21 14:57:50;;;;;;;;;;;16.60;44.80;;;;;;4989839;28;20478;-90
2022/04/21 15:00:16;;;;;;;;;;;16.50;46.50;;;;;;4989845;28;19943;-89
2022/04/21 15:02:41;;;;;;;;;;;16.30;44.90;;;;;;4993705;28;20426;-90
2022/04/21 15:05:07;;;;;;;;;;;16.30;45.20;;;;;;4994684;28;19950;-90
2022/04/21 15:07:33;;;;;;;;;;;16.30;46.80;;;;;;4998770;28;20038;-90
2022/04/21 15:09:58;;;;;;;;;;;16.20;48.40;;;;;;5000574;28;19978;-89
2022/04/21 15:12:24;;;;;;;;;;;16.10;47.60;;;;;;5010577;28;19942;-90
2022/04/21 15:14:50;;;;;;;;;;;16.10;47.50;;;;;;4999092;28;19949;-90
2022/04/21 15:17:16;;;;;;;;;;;16.00;47.60;;;;;;4995632;28;19947;-90
2022/04/21 15:19:46;;;;;;;;;;;16.00;48.20;;;;;;4995364;28;20043;-90
2022/04/21 15:22:12;;;;;;;;;;;16.00;48.90;;;;;;4991391;28;19945;-90
2022/04/21 15:24:37;;;;;;;;;;;15.90;49.40;;;;;;4993376;28;19945;-90
2022/04/21 15:27:03;;;;;;;;;;;15.80;49.80;;;;;;5002051;28;20000;-90